• Join FlightAware (Why Join?)
  • Login
  • US Flag 
05:25PM EDT


 

Airport Tracker/Info


-or-


 

Live Flight TrackerFlight Track Log ✈ CTL17 ✈ 06-May-2013 ✈ KPTK - KMBS

Flight Track Log - Related Links

Times and Time Zones

All times are in EDT time to prevent confusion due to time zone crossing. See the CTL17 flight status page for this flight to view local times or setup timezone preferences in your user account.

Time Position Orientation Groundspeed Altitude Reporting Facility
EDT Latitude Longitude Course Direction KTS MPH feet Rate Location/Type
03:56PM 42.6653 -83.4069 61° Northeast 115 132 1,400  Level Cleveland Center
03:57PM 42.6764 -83.3792 61° Northeast 135 155 2,100 780 Climbing Cleveland Center
03:59PM 42.7234 -83.3964 345° North  Level FlightAware Approximate
04:06PM 42.9561 -83.4283 321° Northwest  Level FlightAware Approximate
04:07PM 42.9835 -83.4585 321° Northwest  Level FlightAware Approximate
04:08PM 43.0109 -83.4887 321° Northwest  Level FlightAware Approximate
04:09PM 43.0383 -83.5189 321° Northwest  Level FlightAware Approximate
04:10PM 43.0656 -83.5491 321° Northwest  Level FlightAware Approximate
04:11PM 43.0930 -83.5794 321° Northwest  Level FlightAware Approximate
04:12PM 43.1203 -83.6097 321° Northwest  Level FlightAware Approximate
04:13PM 43.1477 -83.6400 321° Northwest  Level FlightAware Approximate
04:14PM 43.1750 -83.6704 321° Northwest  Level FlightAware Approximate
04:15PM 43.2024 -83.7008 321° Northwest  Level FlightAware Approximate
04:16PM 43.2292 -83.7319 318° Northwest  Level FlightAware Approximate
04:17PM 43.2555 -83.7640 318° Northwest  Level FlightAware Approximate
04:18PM 43.2818 -83.7961 318° Northwest  Level FlightAware Approximate
04:19PM 43.3081 -83.8282 318° Northwest  Level FlightAware Approximate
04:20PM 43.3344 -83.8604 318° Northwest  Level FlightAware Approximate
04:21PM 43.3606 -83.8926 318° Northwest  Level FlightAware Approximate
04:22PM 43.3886 -83.9219 324° Northwest  Level FlightAware Approximate
04:23PM 43.4171 -83.9503 324° Northwest  Level FlightAware Approximate
04:24PM 43.4455 -83.9788 324° Northwest  Level FlightAware Approximate
04:25PM 43.4740 -84.0073 324° Northwest  Level FlightAware Approximate
04:26PM 43.5017 -84.0368 305° West  Level FlightAware Approximate
04:27PM 43.5167 -84.0667 305° West  Level FlightAware Approximate
04:28PM 43.5329 -84.0796 305° West  Level Estimated